sensor_id;sensor_type;location;lat;lon;timestamp;pressure;altitude;pressure_sealevel;temperature;humidity
42519;BME280;28147;47.520;18.920;2023-04-15T00:01:45;97365.47;;;9.80;68.59
42519;BME280;28147;47.520;18.920;2023-04-15T00:04:11;97362.06;;;9.85;68.64
42519;BME280;28147;47.520;18.920;2023-04-15T00:06:36;97369.03;;;9.59;70.14
42519;BME280;28147;47.520;18.920;2023-04-15T00:09:03;97361.22;;;9.79;69.09
42519;BME280;28147;47.520;18.920;2023-04-15T00:11:29;97367.44;;;9.90;68.41
42519;BME280;28147;47.520;18.920;2023-04-15T00:13:54;97369.47;;;9.78;68.31
42519;BME280;28147;47.520;18.920;2023-04-15T00:16:19;97382.13;;;9.16;69.86
42519;BME280;28147;47.520;18.920;2023-04-15T00:18:45;97369.72;;;9.49;68.79
42519;BME280;28147;47.520;18.920;2023-04-15T00:21:10;97376.75;;;9.33;69.54
42519;BME280;28147;47.520;18.920;2023-04-15T00:23:36;97379.28;;;9.50;69.21
42519;BME280;28147;47.520;18.920;2023-04-15T00:26:01;97379.56;;;9.48;67.97
42519;BME280;28147;47.520;18.920;2023-04-15T00:28:26;97381.75;;;9.57;67.51
42519;BME280;28147;47.520;18.920;2023-04-15T00:30:52;97383.44;;;9.36;68.41
42519;BME280;28147;47.520;18.920;2023-04-15T00:33:17;97373.81;;;9.62;68.15
42519;BME280;28147;47.520;18.920;2023-04-15T00:35:42;97379.25;;;9.18;69.13
42519;BME280;28147;47.520;18.920;2023-04-15T00:38:08;97372.94;;;9.51;69.03
42519;BME280;28147;47.520;18.920;2023-04-15T00:40:33;97359.75;;;9.61;69.15
42519;BME280;28147;47.520;18.920;2023-04-15T00:42:59;97353.03;;;9.54;68.55
42519;BME280;28147;47.520;18.920;2023-04-15T00:45:25;97345.63;;;9.56;68.78
42519;BME280;28147;47.520;18.920;2023-04-15T00:47:50;97354.22;;;9.68;68.42
42519;BME280;28147;47.520;18.920;2023-04-15T00:50:15;97360.72;;;9.82;68.07
42519;BME280;28147;47.520;18.920;2023-04-15T00:52:41;97360.25;;;9.90;68.41
42519;BME280;28147;47.520;18.920;2023-04-15T00:55:06;97360.53;;;9.94;68.58
42519;BME280;28147;47.520;18.920;2023-04-15T00:57:32;97358.97;;;9.98;68.11
42519;BME280;28147;47.520;18.920;2023-04-15T00:59:58;97355.31;;;10.04;68.08
42519;BME280;28147;47.520;18.920;2023-04-15T01:02:24;97363.13;;;9.84;69.54
42519;BME280;28147;47.520;18.920;2023-04-15T01:04:49;97363.72;;;9.96;68.71
42519;BME280;28147;47.520;18.920;2023-04-15T01:07:15;97366.06;;;9.87;69.35
42519;BME280;28147;47.520;18.920;2023-04-15T01:09:41;97360.97;;;9.81;69.72
42519;BME280;28147;47.520;18.920;2023-04-15T01:12:07;97357.19;;;10.09;69.37
42519;BME280;28147;47.520;18.920;2023-04-15T01:14:34;97364.69;;;10.17;68.64
42519;BME280;28147;47.520;18.920;2023-04-15T01:16:59;97363.56;;;10.08;68.97
42519;BME280;28147;47.520;18.920;2023-04-15T01:19:25;97356.53;;;10.29;68.40
42519;BME280;28147;47.520;18.920;2023-04-15T01:21:51;97361.25;;;10.21;68.66
42519;BME280;28147;47.520;18.920;2023-04-15T01:24:17;97363.09;;;10.16;68.91
42519;BME280;28147;47.520;18.920;2023-04-15T01:26:43;97356.09;;;10.05;69.45
42519;BME280;28147;47.520;18.920;2023-04-15T01:29:09;97358.91;;;10.25;69.10
42519;BME280;28147;47.520;18.920;2023-04-15T01:31:34;97359.94;;;10.24;68.87
42519;BME280;28147;47.520;18.920;2023-04-15T01:33:59;97362.59;;;10.24;68.71
42519;BME280;28147;47.520;18.920;2023-04-15T01:36:25;97363.75;;;10.33;68.59
42519;BME280;28147;47.520;18.920;2023-04-15T01:38:50;97364.09;;;10.47;68.27
42519;BME280;28147;47.520;18.920;2023-04-15T01:41:16;97357.28;;;10.24;69.41
42519;BME280;28147;47.520;18.920;2023-04-15T01:43:41;97370.44;;;10.36;67.78
42519;BME280;28147;47.520;18.920;2023-04-15T01:46:06;97364.78;;;10.27;67.97
42519;BME280;28147;47.520;18.920;2023-04-15T01:48:32;97367.44;;;10.27;68.76
42519;BME280;28147;47.520;18.920;2023-04-15T01:50:57;97364.84;;;9.68;70.34
42519;BME280;28147;47.520;18.920;2023-04-15T01:53:26;97369.28;;;9.89;70.88
42519;BME280;28147;47.520;18.920;2023-04-15T01:55:51;97367.53;;;10.05;70.03
42519;BME280;28147;47.520;18.920;2023-04-15T01:58:17;97372.50;;;10.29;69.48
42519;BME280;28147;47.520;18.920;2023-04-15T02:00:42;97374.03;;;9.55;72.07
42519;BME280;28147;47.520;18.920;2023-04-15T02:03:08;97371.09;;;9.84;71.45
42519;BME280;28147;47.520;18.920;2023-04-15T02:05:34;97370.97;;;10.01;70.84
42519;BME280;28147;47.520;18.920;2023-04-15T02:07:59;97370.38;;;9.61;71.97
42519;BME280;28147;47.520;18.920;2023-04-15T02:10:24;97374.78;;;9.50;73.31
42519;BME280;28147;47.520;18.920;2023-04-15T02:12:50;97370.63;;;9.60;73.40
42519;BME280;28147;47.520;18.920;2023-04-15T02:15:15;97365.69;;;10.11;71.46
42519;BME280;28147;47.520;18.920;2023-04-15T02:17:40;97367.75;;;9.98;71.86
42519;BME280;28147;47.520;18.920;2023-04-15T02:20:09;97369.88;;;9.37;74.13
42519;BME280;28147;47.520;18.920;2023-04-15T02:22:35;97370.16;;;9.68;73.48
42519;BME280;28147;47.520;18.920;2023-04-15T02:25:00;97372.75;;;9.09;75.99
42519;BME280;28147;47.520;18.920;2023-04-15T02:27:25;97377.41;;;8.96;78.20
42519;BME280;28147;47.520;18.920;2023-04-15T02:29:52;97379.69;;;8.66;79.25
42519;BME280;28147;47.520;18.920;2023-04-15T02:32:17;97373.91;;;8.91;77.78
42519;BME280;28147;47.520;18.920;2023-04-15T02:34:44;97383.50;;;9.19;77.11
42519;BME280;28147;47.520;18.920;2023-04-15T02:37:09;97376.31;;;9.41;75.39
42519;BME280;28147;47.520;18.920;2023-04-15T02:39:35;97375.00;;;9.76;73.73
42519;BME280;28147;47.520;18.920;2023-04-15T02:42:01;97367.66;;;9.88;72.80
42519;BME280;28147;47.520;18.920;2023-04-15T02:44:26;97373.31;;;9.65;73.77
42519;BME280;28147;47.520;18.920;2023-04-15T02:46:52;97378.63;;;9.65;73.29
42519;BME280;28147;47.520;18.920;2023-04-15T02:49:21;97370.34;;;9.56;74.40
42519;BME280;28147;47.520;18.920;2023-04-15T02:51:47;97379.38;;;9.28;74.91
42519;BME280;28147;47.520;18.920;2023-04-15T02:54:14;97374.34;;;9.59;74.02
42519;BME280;28147;47.520;18.920;2023-04-15T02:56:39;97381.63;;;9.41;75.24
42519;BME280;28147;47.520;18.920;2023-04-15T02:59:05;97384.16;;;9.58;74.47
42519;BME280;28147;47.520;18.920;2023-04-15T03:01:30;97384.22;;;9.36;75.43
42519;BME280;28147;47.520;18.920;2023-04-15T03:03:55;97379.56;;;9.21;76.72
42519;BME280;28147;47.520;18.920;2023-04-15T03:06:21;97382.06;;;9.33;75.26
42519;BME280;28147;47.520;18.920;2023-04-15T03:08:46;97375.59;;;9.24;76.60
42519;BME280;28147;47.520;18.920;2023-04-15T03:11:12;97375.22;;;9.15;76.47
42519;BME280;28147;47.520;18.920;2023-04-15T03:13:38;97374.47;;;9.20;76.13
42519;BME280;28147;47.520;18.920;2023-04-15T03:16:05;97376.94;;;9.54;75.18
42519;BME280;28147;47.520;18.920;2023-04-15T03:18:31;97370.94;;;9.63;74.47
42519;BME280;28147;47.520;18.920;2023-04-15T03:20:56;97369.38;;;9.40;75.12
42519;BME280;28147;47.520;18.920;2023-04-15T03:23:21;97372.53;;;9.37;75.60
42519;BME280;28147;47.520;18.920;2023-04-15T03:25:46;97367.56;;;9.46;74.84
42519;BME280;28147;47.520;18.920;2023-04-15T03:28:12;97369.91;;;9.69;74.17
42519;BME280;28147;47.520;18.920;2023-04-15T03:30:37;97375.19;;;9.37;75.64
42519;BME280;28147;47.520;18.920;2023-04-15T03:33:02;97371.22;;;9.67;74.47
42519;BME280;28147;47.520;18.920;2023-04-15T03:35:28;97374.59;;;9.30;75.85
42519;BME280;28147;47.520;18.920;2023-04-15T03:37:53;97371.44;;;9.60;74.78
42519;BME280;28147;47.520;18.920;2023-04-15T03:40:19;97373.75;;;9.52;74.62
42519;BME280;28147;47.520;18.920;2023-04-15T03:42:45;97371.22;;;9.67;74.25
42519;BME280;28147;47.520;18.920;2023-04-15T03:45:10;97369.81;;;9.91;73.66
42519;BME280;28147;47.520;18.920;2023-04-15T03:47:35;97369.22;;;9.84;73.87
42519;BME280;28147;47.520;18.920;2023-04-15T03:50:01;97362.91;;;9.90;73.74
42519;BME280;28147;47.520;18.920;2023-04-15T03:52:26;97368.31;;;10.01;73.24
42519;BME280;28147;47.520;18.920;2023-04-15T03:54:51;97364.31;;;10.03;73.19
42519;BME280;28147;47.520;18.920;2023-04-15T03:57:17;97359.84;;;10.09;72.81
42519;BME280;28147;47.520;18.920;2023-04-15T03:59:42;97365.94;;;10.04;73.48
42519;BME280;28147;47.520;18.920;2023-04-15T04:02:07;97361.38;;;9.99;73.09
42519;BME280;28147;47.520;18.920;2023-04-15T04:04:33;97364.19;;;10.20;72.80
42519;BME280;28147;47.520;18.920;2023-04-15T04:06:58;97366.78;;;10.15;72.83
42519;BME280;28147;47.520;18.920;2023-04-15T04:09:23;97363.91;;;10.21;72.68
42519;BME280;28147;47.520;18.920;2023-04-15T04:11:49;97356.84;;;10.32;71.85
42519;BME280;28147;47.520;18.920;2023-04-15T04:14:15;97360.56;;;10.36;72.14
42519;BME280;28147;47.520;18.920;2023-04-15T04:16:40;97358.06;;;10.62;71.16
42519;BME280;28147;47.520;18.920;2023-04-15T04:19:06;97365.09;;;10.31;72.44
42519;BME280;28147;47.520;18.920;2023-04-15T04:21:31;97362.44;;;10.31;72.32
42519;BME280;28147;47.520;18.920;2023-04-15T04:23:58;97365.06;;;9.93;73.44
42519;BME280;28147;47.520;18.920;2023-04-15T04:26:23;97365.78;;;9.84;74.28
42519;BME280;28147;47.520;18.920;2023-04-15T04:28:48;97360.50;;;9.89;73.61
42519;BME280;28147;47.520;18.920;2023-04-15T04:31:14;97372.09;;;10.15;72.98
42519;BME280;28147;47.520;18.920;2023-04-15T04:33:39;97364.00;;;10.27;73.17
42519;BME280;28147;47.520;18.920;2023-04-15T04:36:04;97374.97;;;10.40;72.83
42519;BME280;28147;47.520;18.920;2023-04-15T04:38:30;97369.94;;;10.44;72.83
42519;BME280;28147;47.520;18.920;2023-04-15T04:40:55;97373.16;;;10.51;72.89
42519;BME280;28147;47.520;18.920;2023-04-15T04:43:20;97370.03;;;10.64;72.60
42519;BME280;28147;47.520;18.920;2023-04-15T04:45:45;97363.50;;;10.87;72.04
42519;BME280;28147;47.520;18.920;2023-04-15T04:48:11;97377.81;;;10.76;71.66
42519;BME280;28147;47.520;18.920;2023-04-15T04:50:36;97377.13;;;10.11;73.13
42519;BME280;28147;47.520;18.920;2023-04-15T04:53:01;97375.13;;;9.91;76.76
42519;BME280;28147;47.520;18.920;2023-04-15T04:55:27;97371.47;;;9.65;75.52
42519;BME280;28147;47.520;18.920;2023-04-15T04:57:52;97368.78;;;9.60;76.45
42519;BME280;28147;47.520;18.920;2023-04-15T05:00:17;97376.81;;;10.03;75.23
42519;BME280;28147;47.520;18.920;2023-04-15T05:02:43;97378.53;;;9.82;75.77
42519;BME280;28147;47.520;18.920;2023-04-15T05:05:09;97376.53;;;9.67;76.42
42519;BME280;28147;47.520;18.920;2023-04-15T05:07:35;97382.41;;;9.42;77.78
42519;BME280;28147;47.520;18.920;2023-04-15T05:10:00;97386.22;;;8.58;82.91
42519;BME280;28147;47.520;18.920;2023-04-15T05:12:26;97384.47;;;8.64;82.88
42519;BME280;28147;47.520;18.920;2023-04-15T05:14:51;97385.44;;;9.01;82.27
42519;BME280;28147;47.520;18.920;2023-04-15T05:17:16;97381.75;;;9.02;81.79
42519;BME280;28147;47.520;18.920;2023-04-15T05:19:41;97384.09;;;8.99;81.42
42519;BME280;28147;47.520;18.920;2023-04-15T05:22:07;97383.81;;;9.22;80.14
42519;BME280;28147;47.520;18.920;2023-04-15T05:24:32;97386.78;;;9.26;80.55
42519;BME280;28147;47.520;18.920;2023-04-15T05:26:57;97380.41;;;9.54;80.02
42519;BME280;28147;47.520;18.920;2023-04-15T05:29:22;97383.34;;;9.58;79.17
42519;BME280;28147;47.520;18.920;2023-04-15T05:31:48;97386.59;;;9.33;81.02
42519;BME280;28147;47.520;18.920;2023-04-15T05:34:13;97388.03;;;9.45;79.80
42519;BME280;28147;47.520;18.920;2023-04-15T05:36:40;97392.91;;;9.05;81.82
42519;BME280;28147;47.520;18.920;2023-04-15T05:39:05;97390.28;;;9.59;80.58
42519;BME280;28147;47.520;18.920;2023-04-15T05:41:31;97395.38;;;9.65;79.08
42519;BME280;28147;47.520;18.920;2023-04-15T05:43:56;97392.00;;;10.07;77.53
42519;BME280;28147;47.520;18.920;2023-04-15T05:46:21;97395.91;;;10.27;76.75
42519;BME280;28147;47.520;18.920;2023-04-15T05:48:47;97409.56;;;9.76;78.67
42519;BME280;28147;47.520;18.920;2023-04-15T05:51:12;97414.78;;;9.66;80.29
42519;BME280;28147;47.520;18.920;2023-04-15T05:53:37;97398.00;;;9.92;78.96
42519;BME280;28147;47.520;18.920;2023-04-15T05:56:03;97405.75;;;9.94;78.56
42519;BME280;28147;47.520;18.920;2023-04-15T05:58:28;97402.06;;;10.00;79.36
42519;BME280;28147;47.520;18.920;2023-04-15T06:00:53;97407.66;;;10.04;79.56
42519;BME280;28147;47.520;18.920;2023-04-15T06:03:19;97407.09;;;10.29;78.01
42519;BME280;28147;47.520;18.920;2023-04-15T06:05:44;97420.50;;;9.53;80.35
42519;BME280;28147;47.520;18.920;2023-04-15T06:08:09;97424.06;;;9.63;80.01
42519;BME280;28147;47.520;18.920;2023-04-15T06:10:35;97421.94;;;9.65;79.14
42519;BME280;28147;47.520;18.920;2023-04-15T06:13:03;97417.06;;;9.84;79.23
42519;BME280;28147;47.520;18.920;2023-04-15T06:15:29;97424.00;;;9.58;80.45
42519;BME280;28147;47.520;18.920;2023-04-15T06:17:54;97424.25;;;9.57;81.02
42519;BME280;28147;47.520;18.920;2023-04-15T06:20:20;97430.94;;;9.59;80.08
42519;BME280;28147;47.520;18.920;2023-04-15T06:22:45;97418.69;;;9.85;80.55
42519;BME280;28147;47.520;18.920;2023-04-15T06:25:10;97423.50;;;10.20;77.96
42519;BME280;28147;47.520;18.920;2023-04-15T06:27:36;97427.78;;;10.64;76.35
42519;BME280;28147;47.520;18.920;2023-04-15T06:30:01;97436.47;;;10.12;76.90
42519;BME280;28147;47.520;18.920;2023-04-15T06:32:27;97441.56;;;9.59;79.51
42519;BME280;28147;47.520;18.920;2023-04-15T06:34:52;97435.19;;;9.87;78.32
42519;BME280;28147;47.520;18.920;2023-04-15T06:37:17;97437.84;;;9.87;79.30
42519;BME280;28147;47.520;18.920;2023-04-15T06:39:42;97436.41;;;10.86;76.41
42519;BME280;28147;47.520;18.920;2023-04-15T06:42:08;97437.63;;;11.11;74.41
42519;BME280;28147;47.520;18.920;2023-04-15T06:44:34;97435.97;;;10.52;73.90
42519;BME280;28147;47.520;18.920;2023-04-15T06:47:01;97437.44;;;10.75;74.68
42519;BME280;28147;47.520;18.920;2023-04-15T06:49:26;97438.22;;;10.76;74.21
42519;BME280;28147;47.520;18.920;2023-04-15T06:51:52;97445.66;;;10.68;74.28
42519;BME280;28147;47.520;18.920;2023-04-15T06:54:17;97442.81;;;10.90;72.62
42519;BME280;28147;47.520;18.920;2023-04-15T06:56:42;97441.06;;;10.59;74.23
42519;BME280;28147;47.520;18.920;2023-04-15T06:59:07;97437.97;;;10.77;73.87
42519;BME280;28147;47.520;18.920;2023-04-15T07:01:33;97433.53;;;10.93;73.13
42519;BME280;28147;47.520;18.920;2023-04-15T07:03:58;97447.13;;;10.96;72.48
42519;BME280;28147;47.520;18.920;2023-04-15T07:06:23;97450.56;;;10.92;73.87
42519;BME280;28147;47.520;18.920;2023-04-15T07:08:50;97446.22;;;11.33;71.69
42519;BME280;28147;47.520;18.920;2023-04-15T07:11:15;97449.84;;;11.07;72.58
42519;BME280;28147;47.520;18.920;2023-04-15T07:13:41;97450.56;;;10.92;73.11
42519;BME280;28147;47.520;18.920;2023-04-15T07:16:06;97443.13;;;10.94;72.74
42519;BME280;28147;47.520;18.920;2023-04-15T07:18:32;97454.31;;;11.64;72.67
42519;BME280;28147;47.520;18.920;2023-04-15T07:20:58;97450.13;;;11.10;71.93
42519;BME280;28147;47.520;18.920;2023-04-15T07:23:23;97449.75;;;11.64;70.33
42519;BME280;28147;47.520;18.920;2023-04-15T07:25:48;97445.47;;;10.80;72.79
42519;BME280;28147;47.520;18.920;2023-04-15T07:28:14;97443.97;;;11.05;71.33
42519;BME280;28147;47.520;18.920;2023-04-15T07:30:39;97447.84;;;11.50;70.24
42519;BME280;28147;47.520;18.920;2023-04-15T07:33:05;97456.63;;;10.77;69.55
42519;BME280;28147;47.520;18.920;2023-04-15T07:35:30;97456.63;;;10.40;70.61
42519;BME280;28147;47.520;18.920;2023-04-15T07:37:56;97447.34;;;10.85;69.84
42519;BME280;28147;47.520;18.920;2023-04-15T07:40:21;97461.63;;;10.68;70.32
42519;BME280;28147;47.520;18.920;2023-04-15T07:42:47;97455.03;;;10.39;70.92
42519;BME280;28147;47.520;18.920;2023-04-15T07:45:13;97459.94;;;11.05;69.16
42519;BME280;28147;47.520;18.920;2023-04-15T07:47:39;97456.94;;;11.49;68.81
42519;BME280;28147;47.520;18.920;2023-04-15T07:50:06;97454.44;;;11.22;67.81
42519;BME280;28147;47.520;18.920;2023-04-15T07:52:31;97457.75;;;11.64;68.35
42519;BME280;28147;47.520;18.920;2023-04-15T07:54:59;97460.59;;;11.32;68.37
42519;BME280;28147;47.520;18.920;2023-04-15T07:57:24;97467.16;;;11.09;68.76
42519;BME280;28147;47.520;18.920;2023-04-15T07:59:49;97458.69;;;11.17;67.61
42519;BME280;28147;47.520;18.920;2023-04-15T08:02:15;97458.44;;;11.24;68.08
42519;BME280;28147;47.520;18.920;2023-04-15T08:04:40;97470.38;;;11.16;68.09
42519;BME280;28147;47.520;18.920;2023-04-15T08:07:05;97471.72;;;11.14;68.02
42519;BME280;28147;47.520;18.920;2023-04-15T08:09:31;97473.56;;;11.13;67.91
42519;BME280;28147;47.520;18.920;2023-04-15T08:11:56;97486.38;;;10.69;69.17
42519;BME280;28147;47.520;18.920;2023-04-15T08:14:21;97476.63;;;10.85;69.08
42519;BME280;28147;47.520;18.920;2023-04-15T08:16:47;97476.28;;;11.24;68.54
42519;BME280;28147;47.520;18.920;2023-04-15T08:19:12;97477.72;;;11.52;67.17
42519;BME280;28147;47.520;18.920;2023-04-15T08:21:37;97473.72;;;11.44;66.70
42519;BME280;28147;47.520;18.920;2023-04-15T08:24:03;97478.78;;;11.51;66.80
42519;BME280;28147;47.520;18.920;2023-04-15T08:26:28;97479.66;;;10.99;68.55
42519;BME280;28147;47.520;18.920;2023-04-15T08:28:53;97487.81;;;10.87;68.22
42519;BME280;28147;47.520;18.920;2023-04-15T08:31:19;97489.59;;;11.24;68.97
42519;BME280;28147;47.520;18.920;2023-04-15T08:33:44;97493.03;;;11.14;69.75
42519;BME280;28147;47.520;18.920;2023-04-15T08:36:10;97491.44;;;11.91;68.91
42519;BME280;28147;47.520;18.920;2023-04-15T08:38:36;97494.91;;;12.12;68.20
42519;BME280;28147;47.520;18.920;2023-04-15T08:41:02;97493.59;;;12.65;67.41
42519;BME280;28147;47.520;18.920;2023-04-15T08:43:34;97485.53;;;12.91;64.62
42519;BME280;28147;47.520;18.920;2023-04-15T08:45:59;97492.19;;;12.99;64.55
42519;BME280;28147;47.520;18.920;2023-04-15T08:48:29;97492.50;;;12.82;63.80
42519;BME280;28147;47.520;18.920;2023-04-15T08:50:56;97489.06;;;12.15;65.12
42519;BME280;28147;47.520;18.920;2023-04-15T08:53:23;97491.47;;;12.11;64.76
42519;BME280;28147;47.520;18.920;2023-04-15T08:55:50;97488.72;;;11.81;65.91
42519;BME280;28147;47.520;18.920;2023-04-15T08:58:16;97490.41;;;12.58;64.69
42519;BME280;28147;47.520;18.920;2023-04-15T09:00:42;97487.97;;;11.96;66.20
42519;BME280;28147;47.520;18.920;2023-04-15T09:03:07;97496.53;;;12.03;66.65
42519;BME280;28147;47.520;18.920;2023-04-15T09:05:33;97501.72;;;11.52;68.03
42519;BME280;28147;47.520;18.920;2023-04-15T09:07:59;97501.25;;;11.80;67.24
42519;BME280;28147;47.520;18.920;2023-04-15T09:10:24;97497.84;;;12.00;66.19
42519;BME280;28147;47.520;18.920;2023-04-15T09:12:50;97493.03;;;12.69;63.07
42519;BME280;28147;47.520;18.920;2023-04-15T09:15:15;97497.31;;;12.85;61.78
42519;BME280;28147;47.520;18.920;2023-04-15T09:17:42;97501.06;;;12.53;62.21
42519;BME280;28147;47.520;18.920;2023-04-15T09:20:08;97505.34;;;12.64;63.11
42519;BME280;28147;47.520;18.920;2023-04-15T09:22:34;97501.34;;;12.62;62.05
42519;BME280;28147;47.520;18.920;2023-04-15T09:25:00;97502.41;;;12.46;62.03
42519;BME280;28147;47.520;18.920;2023-04-15T09:27:25;97505.06;;;12.71;60.32
42519;BME280;28147;47.520;18.920;2023-04-15T09:29:52;97505.09;;;12.35;61.49
42519;BME280;28147;47.520;18.920;2023-04-15T09:32:17;97497.88;;;12.10;61.55
42519;BME280;28147;47.520;18.920;2023-04-15T09:34:43;97504.09;;;11.53;64.74
42519;BME280;28147;47.520;18.920;2023-04-15T09:37:12;97496.19;;;11.79;65.04
42519;BME280;28147;47.520;18.920;2023-04-15T09:39:46;97496.97;;;11.74;66.74
42519;BME280;28147;47.520;18.920;2023-04-15T09:42:12;97504.63;;;11.45;69.98
42519;BME280;28147;47.520;18.920;2023-04-15T09:44:38;97510.25;;;11.54;68.51
42519;BME280;28147;47.520;18.920;2023-04-15T09:47:03;97507.06;;;11.57;69.71
42519;BME280;28147;47.520;18.920;2023-04-15T09:49:28;97503.22;;;11.32;67.62
42519;BME280;28147;47.520;18.920;2023-04-15T09:51:57;97506.44;;;11.34;67.16
42519;BME280;28147;47.520;18.920;2023-04-15T09:54:22;97515.47;;;12.01;63.57
42519;BME280;28147;47.520;18.920;2023-04-15T09:56:48;97506.69;;;12.47;65.11
42519;BME280;28147;47.520;18.920;2023-04-15T09:59:13;97510.16;;;12.32;65.32
42519;BME280;28147;47.520;18.920;2023-04-15T10:01:39;97511.28;;;11.48;68.24
42519;BME280;28147;47.520;18.920;2023-04-15T10:04:06;97516.66;;;11.58;70.44
42519;BME280;28147;47.520;18.920;2023-04-15T10:06:33;97518.91;;;11.91;70.27
42519;BME280;28147;47.520;18.920;2023-04-15T10:08:58;97519.50;;;12.34;68.78
42519;BME280;28147;47.520;18.920;2023-04-15T10:11:27;97521.78;;;13.33;69.45
42519;BME280;28147;47.520;18.920;2023-04-15T10:13:52;97510.88;;;12.99;68.94
42519;BME280;28147;47.520;18.920;2023-04-15T10:16:19;97522.16;;;12.70;66.18
42519;BME280;28147;47.520;18.920;2023-04-15T10:18:45;97519.94;;;13.33;66.00
42519;BME280;28147;47.520;18.920;2023-04-15T10:21:11;97518.16;;;12.16;64.97
42519;BME280;28147;47.520;18.920;2023-04-15T10:23:38;97523.75;;;12.81;64.70
42519;BME280;28147;47.520;18.920;2023-04-15T10:26:03;97519.72;;;12.02;65.38
42519;BME280;28147;47.520;18.920;2023-04-15T10:28:28;97525.88;;;12.08;65.26
42519;BME280;28147;47.520;18.920;2023-04-15T10:30:54;97530.66;;;11.90;64.45
42519;BME280;28147;47.520;18.920;2023-04-15T10:33:21;97522.16;;;12.14;64.64
42519;BME280;28147;47.520;18.920;2023-04-15T10:35:48;97528.22;;;11.84;66.11
42519;BME280;28147;47.520;18.920;2023-04-15T10:40:55;97524.44;;;11.80;69.26
42519;BME280;28147;47.520;18.920;2023-04-15T10:43:35;97535.91;;;11.80;69.40
42519;BME280;28147;47.520;18.920;2023-04-15T10:46:03;97537.91;;;11.48;69.92
42519;BME280;28147;47.520;18.920;2023-04-15T10:48:29;97543.00;;;11.44;69.01
42519;BME280;28147;47.520;18.920;2023-04-15T10:50:55;97547.28;;;11.55;68.22
42519;BME280;28147;47.520;18.920;2023-04-15T10:53:27;97545.81;;;11.22;69.16
42519;BME280;28147;47.520;18.920;2023-04-15T10:55:53;97543.44;;;11.83;69.13
42519;BME280;28147;47.520;18.920;2023-04-15T10:58:18;97542.66;;;11.98;69.04
42519;BME280;28147;47.520;18.920;2023-04-15T11:00:52;97552.19;;;11.79;69.00
42519;BME280;28147;47.520;18.920;2023-04-15T11:03:22;97545.03;;;11.22;70.99
42519;BME280;28147;47.520;18.920;2023-04-15T11:05:58;97543.88;;;11.65;71.18
42519;BME280;28147;47.520;18.920;2023-04-15T11:08:51;97549.13;;;11.44;73.14
42519;BME280;28147;47.520;18.920;2023-04-15T11:11:08;97543.50;;;11.41;73.95
42519;BME280;28147;47.520;18.920;2023-04-15T11:13:34;97542.31;;;11.79;74.60
42519;BME280;28147;47.520;18.920;2023-04-15T11:16:00;97545.56;;;11.86;74.63
42519;BME280;28147;47.520;18.920;2023-04-15T11:18:27;97542.41;;;12.15;72.73
42519;BME280;28147;47.520;18.920;2023-04-15T11:20:56;97548.56;;;11.37;72.92
42519;BME280;28147;47.520;18.920;2023-04-15T11:23:41;97546.69;;;11.43;72.05
42519;BME280;28147;47.520;18.920;2023-04-15T11:26:11;97548.31;;;11.44;72.85
42519;BME280;28147;47.520;18.920;2023-04-15T11:28:37;97541.13;;;11.44;72.39
42519;BME280;28147;47.520;18.920;2023-04-15T11:31:06;97548.13;;;11.61;70.89
42519;BME280;28147;47.520;18.920;2023-04-15T11:33:32;97546.56;;;11.75;70.61
42519;BME280;28147;47.520;18.920;2023-04-15T11:35:58;97539.16;;;11.92;69.39
42519;BME280;28147;47.520;18.920;2023-04-15T11:38:23;97549.66;;;12.30;67.70
42519;BME280;28147;47.520;18.920;2023-04-15T11:40:49;97547.22;;;11.98;66.48
42519;BME280;28147;47.520;18.920;2023-04-15T11:43:18;97539.47;;;12.01;67.54
42519;BME280;28147;47.520;18.920;2023-04-15T11:46:00;97555.09;;;11.72;67.02
42519;BME280;28147;47.520;18.920;2023-04-15T11:48:35;97553.44;;;11.61;67.89
42519;BME280;28147;47.520;18.920;2023-04-15T11:51:04;97547.91;;;11.78;69.48
42519;BME280;28147;47.520;18.920;2023-04-15T11:53:41;97547.25;;;12.38;67.75
42519;BME280;28147;47.520;18.920;2023-04-15T11:56:07;97553.38;;;11.40;69.14
42519;BME280;28147;47.520;18.920;2023-04-15T11:58:33;97548.97;;;11.14;69.38
42519;BME280;28147;47.520;18.920;2023-04-15T12:00:59;97555.03;;;11.52;69.28
42519;BME280;28147;47.520;18.920;2023-04-15T12:06:06;97554.69;;;12.11;68.56
42519;BME280;28147;47.520;18.920;2023-04-15T12:13:46;97569.72;;;11.64;67.48
42519;BME280;28147;47.520;18.920;2023-04-15T12:16:11;97569.22;;;11.78;67.91
42519;BME280;28147;47.520;18.920;2023-04-15T12:18:37;97560.03;;;12.06;66.74
42519;BME280;28147;47.520;18.920;2023-04-15T12:21:09;97556.78;;;11.93;66.71
42519;BME280;28147;47.520;18.920;2023-04-15T12:23:38;97559.56;;;11.61;67.94
42519;BME280;28147;47.520;18.920;2023-04-15T12:26:04;97563.09;;;11.77;68.20
42519;BME280;28147;47.520;18.920;2023-04-15T12:28:30;97556.63;;;11.58;68.51
42519;BME280;28147;47.520;18.920;2023-04-15T12:30:56;97557.66;;;11.47;68.01
42519;BME280;28147;47.520;18.920;2023-04-15T12:33:21;97559.91;;;11.75;67.75
42519;BME280;28147;47.520;18.920;2023-04-15T12:35:46;97567.56;;;12.55;67.38
42519;BME280;28147;47.520;18.920;2023-04-15T12:38:12;97564.88;;;12.75;67.19
42519;BME280;28147;47.520;18.920;2023-04-15T12:40:37;97562.09;;;11.88;66.99
42519;BME280;28147;47.520;18.920;2023-04-15T12:43:02;97563.75;;;12.15;65.79
42519;BME280;28147;47.520;18.920;2023-04-15T12:45:28;97572.88;;;12.45;64.03
42519;BME280;28147;47.520;18.920;2023-04-15T12:47:53;97568.22;;;11.89;65.06
42519;BME280;28147;47.520;18.920;2023-04-15T12:50:18;97570.75;;;12.36;64.77
42519;BME280;28147;47.520;18.920;2023-04-15T12:52:44;97574.97;;;12.27;65.67
42519;BME280;28147;47.520;18.920;2023-04-15T12:55:09;97582.44;;;12.10;65.98
42519;BME280;28147;47.520;18.920;2023-04-15T12:57:34;97582.22;;;12.32;65.45